Durango, CO

3:57 AM MDT on September 17, 2014 (GMT -0600)
Falls Creek Ranch | Change Station
CLOSE
Current Station
Personal Weather Station
Location: Durango, CO
Elevation: 7560 ft
Nearby Weather Stations

Elev 7560 ft 37.29 °N, 107.87 °W | Updated 4 seconds ago

Partly Cloudy
Partly Cloudy
52.0 °F
Feels Like 52.0 °F
N
0.0
Wind Variable Wind from NE

Today
High -- | Low -- °F
--% Chance of Precip.
Yesterday
High -- | Low -- °F
Precip. -- in
6:55 AM 7:15 PM
Last Quarter, 37% visible
Pressure 29.98 in
Visibility 10.0 miles
Clouds Clear
Dew Point 43 °F
Humidity 72%
Rainfall 0.00 in
Snow Depth 1 in , 0 in , 0 in
UV 0 out of 12
Pollen 6.50 out of 12
Air Quality Not available.
Flu Activity Not available.
METAR KDRO 170853Z AUTO 02005KT 10SM CLR 13/07 A3024 RMK AO2 SLP152 T01330072 58002

More Conditions Fewer Conditions

Pressure 29.98 in
Visibility 10.0 miles
Clouds Clear
Dew Point 43 °F
Humidity 72%
Rainfall 0.00 in
Snow Depth 1 in , 0 in , 0 in
UV 0 out of 12
Pollen 6.50 out of 12
Air Quality Not available.
Flu Activity Not available.
METAR KDRO 170853Z AUTO 02005KT 10SM CLR 13/07 A3024 RMK AO2 SLP152 T01330072 58002

More Conditions Fewer Conditions

10-Day Weather Forecast

Almanac

Astronomy

Sep. 17, 2014 Rise Set
Actual Time 6:55 AM MDT 7:15 PM MDT
Civil Twilight 6:28 AM MDT 7:41 PM MDT
Nautical Twilight 5:58 AM MDT 8:12 PM MDT
Astronomical Twilight 5:27 AM MDT 8:43 PM MDT
Moon 1:03 AM MDT 3:22 PM MDT
Length of Visible Light 13h 12m
Length of Day
12h 20m
Tomorrow will be 2m 23s shorter.
Last Quarter, 37% of the Moon is Illuminated
Today
Last Quarter
Sep 24
New
Oct 1
First Quarter
Oct 8
Full
Oct 15
Last Quarter

Today's Extremes

State Highs State Lows

Community

WunderPhotos

Upload Photos

1,753,991 photos uploaded!

Nearby

Snow Depth

Station Depth Elevation
Ivanhoe 1 in 10400 ft
Grizzly Peak 0 in 11100 ft
Cumbres Trestle 0 in 10020 ft
Lost Dog 0 in 9320 ft
Jackwhacker Gulch 0 in 10960 ft

Earthquake Activity

City Distance Mag. Time & Date
No recent earthquake activity has been reported nearby.
Minimum magnitude displayed is 2.5.

Coastal Water Temperatures

Place Temperature
No Stations Reporting

Nearby Weather Stations